sensor_id;sensor_type;location;lat;lon;timestamp;P1;durP1;ratioP1;P2;durP2;ratioP2
48263;SDS011;34086;51.076;13.722;2023-12-28T00:00:59;14.73;;;7.72;;
48263;SDS011;34086;51.076;13.722;2023-12-28T00:01:59;13.98;;;7.85;;
48263;SDS011;34086;51.076;13.722;2023-12-28T00:03:00;15.38;;;7.97;;
48263;SDS011;34086;51.076;13.722;2023-12-28T00:04:00;16.13;;;8.57;;
48263;SDS011;34086;51.076;13.722;2023-12-28T00:05:01;15.07;;;7.57;;
48263;SDS011;34086;51.076;13.722;2023-12-28T00:06:01;13.57;;;7.32;;
48263;SDS011;34086;51.076;13.722;2023-12-28T00:07:02;15.55;;;8.15;;
48263;SDS011;34086;51.076;13.722;2023-12-28T00:08:03;13.35;;;7.35;;
48263;SDS011;34086;51.076;13.722;2023-12-28T00:09:04;16.02;;;7.85;;
48263;SDS011;34086;51.076;13.722;2023-12-28T00:10:05;14.98;;;7.88;;
48263;SDS011;34086;51.076;13.722;2023-12-28T00:11:06;12.88;;;7.55;;
48263;SDS011;34086;51.076;13.722;2023-12-28T00:12:06;13.90;;;7.38;;
48263;SDS011;34086;51.076;13.722;2023-12-28T00:13:07;14.25;;;7.07;;
48263;SDS011;34086;51.076;13.722;2023-12-28T00:14:08;13.23;;;7.07;;
48263;SDS011;34086;51.076;13.722;2023-12-28T00:15:08;15.68;;;8.15;;
48263;SDS011;34086;51.076;13.722;2023-12-28T00:16:09;14.90;;;7.78;;
48263;SDS011;34086;51.076;13.722;2023-12-28T00:17:09;16.10;;;7.88;;
48263;SDS011;34086;51.076;13.722;2023-12-28T00:18:10;19.27;;;7.63;;
48263;SDS011;34086;51.076;13.722;2023-12-28T00:19:10;14.18;;;7.55;;
48263;SDS011;34086;51.076;13.722;2023-12-28T00:20:11;13.38;;;7.57;;
48263;SDS011;34086;51.076;13.722;2023-12-28T00:21:12;17.38;;;7.97;;
48263;SDS011;34086;51.076;13.722;2023-12-28T00:22:13;14.68;;;7.47;;
48263;SDS011;34086;51.076;13.722;2023-12-28T00:23:13;14.85;;;7.65;;
48263;SDS011;34086;51.076;13.722;2023-12-28T00:24:15;12.25;;;7.43;;
48263;SDS011;34086;51.076;13.722;2023-12-28T00:25:15;13.00;;;7.18;;
48263;SDS011;34086;51.076;13.722;2023-12-28T00:26:16;11.73;;;6.82;;
48263;SDS011;34086;51.076;13.722;2023-12-28T00:27:21;14.35;;;7.25;;
48263;SDS011;34086;51.076;13.722;2023-12-28T00:28:22;13.70;;;7.50;;
48263;SDS011;34086;51.076;13.722;2023-12-28T00:29:23;14.70;;;6.93;;
48263;SDS011;34086;51.076;13.722;2023-12-28T00:30:23;14.70;;;7.28;;
48263;SDS011;34086;51.076;13.722;2023-12-28T00:31:24;13.75;;;7.50;;
48263;SDS011;34086;51.076;13.722;2023-12-28T00:32:24;14.35;;;7.72;;
48263;SDS011;34086;51.076;13.722;2023-12-28T00:33:25;12.38;;;7.60;;
48263;SDS011;34086;51.076;13.722;2023-12-28T00:34:26;14.43;;;8.07;;
48263;SDS011;34086;51.076;13.722;2023-12-28T00:35:26;11.00;;;7.20;;
48263;SDS011;34086;51.076;13.722;2023-12-28T00:36:27;12.75;;;7.32;;
48263;SDS011;34086;51.076;13.722;2023-12-28T00:37:27;13.10;;;7.38;;
48263;SDS011;34086;51.076;13.722;2023-12-28T00:38:28;14.05;;;7.50;;
48263;SDS011;34086;51.076;13.722;2023-12-28T00:39:28;12.35;;;7.78;;
48263;SDS011;34086;51.076;13.722;2023-12-28T00:40:29;16.73;;;7.60;;
48263;SDS011;34086;51.076;13.722;2023-12-28T00:41:30;14.52;;;7.75;;
48263;SDS011;34086;51.076;13.722;2023-12-28T00:42:30;12.82;;;7.28;;
48263;SDS011;34086;51.076;13.722;2023-12-28T00:43:31;14.02;;;7.53;;
48263;SDS011;34086;51.076;13.722;2023-12-28T00:44:33;15.45;;;8.52;;
48263;SDS011;34086;51.076;13.722;2023-12-28T00:45:33;13.70;;;7.00;;
48263;SDS011;34086;51.076;13.722;2023-12-28T00:46:34;13.30;;;7.18;;
48263;SDS011;34086;51.076;13.722;2023-12-28T00:47:35;12.18;;;7.20;;
48263;SDS011;34086;51.076;13.722;2023-12-28T00:48:36;12.85;;;6.80;;
48263;SDS011;34086;51.076;13.722;2023-12-28T00:49:36;11.40;;;6.90;;
48263;SDS011;34086;51.076;13.722;2023-12-28T00:50:37;13.30;;;7.13;;
48263;SDS011;34086;51.076;13.722;2023-12-28T00:51:37;12.30;;;6.68;;
48263;SDS011;34086;51.076;13.722;2023-12-28T00:52:38;13.35;;;7.18;;
48263;SDS011;34086;51.076;13.722;2023-12-28T00:53:39;17.83;;;7.22;;
48263;SDS011;34086;51.076;13.722;2023-12-28T00:54:39;12.95;;;6.88;;
48263;SDS011;34086;51.076;13.722;2023-12-28T00:55:40;12.40;;;7.13;;
48263;SDS011;34086;51.076;13.722;2023-12-28T00:56:40;13.55;;;6.72;;
48263;SDS011;34086;51.076;13.722;2023-12-28T00:57:41;11.90;;;7.43;;
48263;SDS011;34086;51.076;13.722;2023-12-28T00:58:42;15.38;;;7.68;;
48263;SDS011;34086;51.076;13.722;2023-12-28T00:59:43;16.45;;;7.35;;
48263;SDS011;34086;51.076;13.722;2023-12-28T01:00:44;13.27;;;8.20;;
48263;SDS011;34086;51.076;13.722;2023-12-28T01:01:44;13.38;;;8.00;;
48263;SDS011;34086;51.076;13.722;2023-12-28T01:02:45;14.38;;;7.88;;
48263;SDS011;34086;51.076;13.722;2023-12-28T01:03:47;16.08;;;8.18;;
48263;SDS011;34086;51.076;13.722;2023-12-28T01:04:47;16.10;;;8.52;;
48263;SDS011;34086;51.076;13.722;2023-12-28T01:05:49;18.52;;;8.43;;
48263;SDS011;34086;51.076;13.722;2023-12-28T01:06:52;13.88;;;7.15;;
48263;SDS011;34086;51.076;13.722;2023-12-28T01:07:52;13.18;;;6.97;;
48263;SDS011;34086;51.076;13.722;2023-12-28T01:08:53;12.95;;;7.07;;
48263;SDS011;34086;51.076;13.722;2023-12-28T01:09:54;14.00;;;7.15;;
48263;SDS011;34086;51.076;13.722;2023-12-28T01:10:55;15.27;;;7.30;;
48263;SDS011;34086;51.076;13.722;2023-12-28T01:11:55;12.15;;;7.15;;
48263;SDS011;34086;51.076;13.722;2023-12-28T01:12:56;12.25;;;6.78;;
48263;SDS011;34086;51.076;13.722;2023-12-28T01:13:56;12.68;;;7.13;;
48263;SDS011;34086;51.076;13.722;2023-12-28T01:14:57;12.45;;;6.75;;
48263;SDS011;34086;51.076;13.722;2023-12-28T01:15:58;12.77;;;7.10;;
48263;SDS011;34086;51.076;13.722;2023-12-28T01:16:59;13.32;;;6.85;;
48263;SDS011;34086;51.076;13.722;2023-12-28T01:17:59;12.13;;;6.90;;
48263;SDS011;34086;51.076;13.722;2023-12-28T01:19:00;12.75;;;7.28;;
48263;SDS011;34086;51.076;13.722;2023-12-28T01:20:00;14.27;;;6.78;;
48263;SDS011;34086;51.076;13.722;2023-12-28T01:21:01;11.57;;;6.88;;
48263;SDS011;34086;51.076;13.722;2023-12-28T01:22:02;10.45;;;6.60;;
48263;SDS011;34086;51.076;13.722;2023-12-28T01:23:02;11.70;;;6.55;;
48263;SDS011;34086;51.076;13.722;2023-12-28T01:24:03;13.07;;;6.68;;
48263;SDS011;34086;51.076;13.722;2023-12-28T01:25:04;12.05;;;6.45;;
48263;SDS011;34086;51.076;13.722;2023-12-28T01:26:05;10.40;;;6.32;;
48263;SDS011;34086;51.076;13.722;2023-12-28T01:27:06;10.40;;;6.28;;
48263;SDS011;34086;51.076;13.722;2023-12-28T01:28:07;11.93;;;6.50;;
48263;SDS011;34086;51.076;13.722;2023-12-28T01:29:07;11.23;;;6.60;;
48263;SDS011;34086;51.076;13.722;2023-12-28T01:30:08;10.57;;;6.28;;
48263;SDS011;34086;51.076;13.722;2023-12-28T01:31:09;10.38;;;6.57;;
48263;SDS011;34086;51.076;13.722;2023-12-28T01:32:09;11.98;;;6.53;;
48263;SDS011;34086;51.076;13.722;2023-12-28T01:33:11;9.70;;;6.20;;
48263;SDS011;34086;51.076;13.722;2023-12-28T01:34:12;10.35;;;6.05;;
48263;SDS011;34086;51.076;13.722;2023-12-28T01:35:13;11.50;;;6.40;;
48263;SDS011;34086;51.076;13.722;2023-12-28T01:36:17;12.45;;;6.30;;
48263;SDS011;34086;51.076;13.722;2023-12-28T01:37:19;10.70;;;6.10;;
48263;SDS011;34086;51.076;13.722;2023-12-28T01:38:19;10.43;;;5.80;;
48263;SDS011;34086;51.076;13.722;2023-12-28T01:39:20;13.30;;;5.95;;
48263;SDS011;34086;51.076;13.722;2023-12-28T01:40:21;11.23;;;5.97;;
48263;SDS011;34086;51.076;13.722;2023-12-28T01:41:21;9.93;;;5.70;;
48263;SDS011;34086;51.076;13.722;2023-12-28T01:42:22;10.35;;;5.70;;
48263;SDS011;34086;51.076;13.722;2023-12-28T01:43:22;12.73;;;6.00;;
48263;SDS011;34086;51.076;13.722;2023-12-28T01:44:23;10.02;;;6.10;;
48263;SDS011;34086;51.076;13.722;2023-12-28T01:45:23;11.70;;;6.28;;
48263;SDS011;34086;51.076;13.722;2023-12-28T01:46:24;12.00;;;5.93;;
48263;SDS011;34086;51.076;13.722;2023-12-28T01:47:25;9.95;;;6.05;;
48263;SDS011;34086;51.076;13.722;2023-12-28T01:48:26;9.48;;;5.57;;
48263;SDS011;34086;51.076;13.722;2023-12-28T01:49:27;10.23;;;5.85;;
48263;SDS011;34086;51.076;13.722;2023-12-28T01:50:28;10.55;;;5.85;;
48263;SDS011;34086;51.076;13.722;2023-12-28T01:51:31;11.05;;;5.78;;
48263;SDS011;34086;51.076;13.722;2023-12-28T01:52:32;9.45;;;5.70;;
48263;SDS011;34086;51.076;13.722;2023-12-28T01:53:34;10.20;;;5.55;;
48263;SDS011;34086;51.076;13.722;2023-12-28T01:54:35;9.35;;;6.00;;
48263;SDS011;34086;51.076;13.722;2023-12-28T01:55:37;9.85;;;6.05;;
48263;SDS011;34086;51.076;13.722;2023-12-28T01:56:38;9.85;;;5.50;;
48263;SDS011;34086;51.076;13.722;2023-12-28T01:57:39;9.80;;;6.00;;
48263;SDS011;34086;51.076;13.722;2023-12-28T01:58:40;9.40;;;6.00;;
48263;SDS011;34086;51.076;13.722;2023-12-28T01:59:43;10.40;;;5.90;;
48263;SDS011;34086;51.076;13.722;2023-12-28T02:00:44;9.75;;;5.60;;
48263;SDS011;34086;51.076;13.722;2023-12-28T02:01:45;10.15;;;5.80;;
48263;SDS011;34086;51.076;13.722;2023-12-28T02:02:46;10.23;;;5.60;;
48263;SDS011;34086;51.076;13.722;2023-12-28T02:03:48;9.23;;;5.50;;
48263;SDS011;34086;51.076;13.722;2023-12-28T02:04:49;9.25;;;5.40;;
48263;SDS011;34086;51.076;13.722;2023-12-28T02:05:49;8.98;;;5.60;;
48263;SDS011;34086;51.076;13.722;2023-12-28T02:06:51;9.55;;;5.43;;
48263;SDS011;34086;51.076;13.722;2023-12-28T02:07:56;9.23;;;5.30;;
48263;SDS011;34086;51.076;13.722;2023-12-28T02:08:58;8.93;;;5.25;;
48263;SDS011;34086;51.076;13.722;2023-12-28T02:09:59;9.35;;;5.30;;
48263;SDS011;34086;51.076;13.722;2023-12-28T02:10:59;7.72;;;5.10;;
48263;SDS011;34086;51.076;13.722;2023-12-28T02:12:00;8.40;;;4.88;;
48263;SDS011;34086;51.076;13.722;2023-12-28T02:13:00;8.40;;;5.20;;
48263;SDS011;34086;51.076;13.722;2023-12-28T02:14:01;9.30;;;4.97;;
48263;SDS011;34086;51.076;13.722;2023-12-28T02:15:02;7.35;;;4.72;;
48263;SDS011;34086;51.076;13.722;2023-12-28T02:16:03;8.23;;;4.80;;
48263;SDS011;34086;51.076;13.722;2023-12-28T02:17:26;9.05;;;4.90;;
48263;SDS011;34086;51.076;13.722;2023-12-28T02:19:45;10.02;;;5.32;;
48263;SDS011;34086;51.076;13.722;2023-12-28T02:20:54;9.07;;;4.90;;
48263;SDS011;34086;51.076;13.722;2023-12-28T02:21:56;7.47;;;4.65;;
48263;SDS011;34086;51.076;13.722;2023-12-28T02:22:59;9.00;;;4.95;;
48263;SDS011;34086;51.076;13.722;2023-12-28T02:23:59;8.00;;;5.00;;
48263;SDS011;34086;51.076;13.722;2023-12-28T02:26:04;8.63;;;5.15;;
48263;SDS011;34086;51.076;13.722;2023-12-28T02:27:04;10.05;;;4.90;;
48263;SDS011;34086;51.076;13.722;2023-12-28T02:28:05;10.38;;;4.70;;
48263;SDS011;34086;51.076;13.722;2023-12-28T02:29:05;7.03;;;4.60;;
48263;SDS011;34086;51.076;13.722;2023-12-28T02:30:08;8.32;;;4.82;;
48263;SDS011;34086;51.076;13.722;2023-12-28T02:31:13;6.53;;;4.40;;
48263;SDS011;34086;51.076;13.722;2023-12-28T02:32:39;7.70;;;4.50;;
48263;SDS011;34086;51.076;13.722;2023-12-28T02:34:06;7.63;;;4.60;;
48263;SDS011;34086;51.076;13.722;2023-12-28T02:35:14;7.93;;;4.63;;
48263;SDS011;34086;51.076;13.722;2023-12-28T02:36:23;7.50;;;4.30;;
48263;SDS011;34086;51.076;13.722;2023-12-28T02:37:26;7.03;;;4.28;;
48263;SDS011;34086;51.076;13.722;2023-12-28T02:38:29;6.72;;;4.32;;
48263;SDS011;34086;51.076;13.722;2023-12-28T02:39:32;6.35;;;4.20;;
48263;SDS011;34086;51.076;13.722;2023-12-28T02:40:37;6.90;;;4.13;;
48263;SDS011;34086;51.076;13.722;2023-12-28T02:41:44;6.88;;;4.32;;
48263;SDS011;34086;51.076;13.722;2023-12-28T02:42:46;6.60;;;4.07;;
48263;SDS011;34086;51.076;13.722;2023-12-28T02:43:48;7.40;;;4.35;;
48263;SDS011;34086;51.076;13.722;2023-12-28T02:44:49;7.13;;;4.43;;
48263;SDS011;34086;51.076;13.722;2023-12-28T02:45:50;7.32;;;4.10;;
48263;SDS011;34086;51.076;13.722;2023-12-28T02:46:50;5.80;;;4.00;;
48263;SDS011;34086;51.076;13.722;2023-12-28T02:47:51;6.95;;;4.05;;
48263;SDS011;34086;51.076;13.722;2023-12-28T02:48:51;5.55;;;4.00;;
48263;SDS011;34086;51.076;13.722;2023-12-28T02:49:52;6.00;;;4.13;;
48263;SDS011;34086;51.076;13.722;2023-12-28T02:50:53;5.53;;;3.60;;
48263;SDS011;34086;51.076;13.722;2023-12-28T02:51:55;5.47;;;3.72;;
48263;SDS011;34086;51.076;13.722;2023-12-28T02:52:55;7.03;;;3.95;;
48263;SDS011;34086;51.076;13.722;2023-12-28T02:53:56;5.70;;;3.33;;
48263;SDS011;34086;51.076;13.722;2023-12-28T02:54:57;5.00;;;3.42;;
48263;SDS011;34086;51.076;13.722;2023-12-28T02:55:57;4.55;;;3.20;;
48263;SDS011;34086;51.076;13.722;2023-12-28T02:56:58;6.25;;;3.65;;
48263;SDS011;34086;51.076;13.722;2023-12-28T02:57:58;4.32;;;3.20;;
48263;SDS011;34086;51.076;13.722;2023-12-28T02:58:59;5.97;;;3.10;;
48263;SDS011;34086;51.076;13.722;2023-12-28T03:00:01;5.82;;;3.20;;
48263;SDS011;34086;51.076;13.722;2023-12-28T03:01:02;5.35;;;3.50;;
48263;SDS011;34086;51.076;13.722;2023-12-28T03:02:03;4.90;;;3.22;;
48263;SDS011;34086;51.076;13.722;2023-12-28T03:03:04;3.95;;;3.05;;
48263;SDS011;34086;51.076;13.722;2023-12-28T03:04:04;4.20;;;3.13;;
48263;SDS011;34086;51.076;13.722;2023-12-28T03:05:05;5.72;;;3.50;;
48263;SDS011;34086;51.076;13.722;2023-12-28T03:06:06;4.50;;;3.40;;
48263;SDS011;34086;51.076;13.722;2023-12-28T03:07:07;4.22;;;3.35;;
48263;SDS011;34086;51.076;13.722;2023-12-28T03:08:08;5.05;;;3.28;;
48263;SDS011;34086;51.076;13.722;2023-12-28T03:09:09;4.47;;;3.35;;
48263;SDS011;34086;51.076;13.722;2023-12-28T03:10:09;6.43;;;3.20;;
48263;SDS011;34086;51.076;13.722;2023-12-28T03:11:14;5.78;;;3.28;;
48263;SDS011;34086;51.076;13.722;2023-12-28T03:12:14;5.35;;;3.10;;
48263;SDS011;34086;51.076;13.722;2023-12-28T03:13:16;6.57;;;3.25;;
48263;SDS011;34086;51.076;13.722;2023-12-28T03:14:19;3.95;;;2.75;;
48263;SDS011;34086;51.076;13.722;2023-12-28T03:15:21;6.38;;;3.45;;
48263;SDS011;34086;51.076;13.722;2023-12-28T03:16:23;6.78;;;3.65;;
48263;SDS011;34086;51.076;13.722;2023-12-28T03:17:23;5.07;;;3.20;;
48263;SDS011;34086;51.076;13.722;2023-12-28T03:18:24;4.78;;;3.15;;
48263;SDS011;34086;51.076;13.722;2023-12-28T03:19:24;4.57;;;3.08;;
48263;SDS011;34086;51.076;13.722;2023-12-28T03:20:25;5.30;;;2.83;;
48263;SDS011;34086;51.076;13.722;2023-12-28T03:21:25;4.63;;;2.97;;
48263;SDS011;34086;51.076;13.722;2023-12-28T03:22:28;5.03;;;3.05;;
48263;SDS011;34086;51.076;13.722;2023-12-28T03:23:28;5.93;;;3.05;;
48263;SDS011;34086;51.076;13.722;2023-12-28T03:24:29;5.38;;;3.42;;
48263;SDS011;34086;51.076;13.722;2023-12-28T03:25:29;4.90;;;3.00;;
48263;SDS011;34086;51.076;13.722;2023-12-28T03:26:30;5.97;;;3.15;;
48263;SDS011;34086;51.076;13.722;2023-12-28T03:27:30;5.00;;;3.50;;
48263;SDS011;34086;51.076;13.722;2023-12-28T03:28:31;5.00;;;3.33;;
48263;SDS011;34086;51.076;13.722;2023-12-28T03:29:32;4.63;;;3.30;;
48263;SDS011;34086;51.076;13.722;2023-12-28T03:30:34;3.97;;;2.70;;
48263;SDS011;34086;51.076;13.722;2023-12-28T03:31:38;5.10;;;3.00;;
48263;SDS011;34086;51.076;13.722;2023-12-28T03:32:40;4.40;;;3.20;;
48263;SDS011;34086;51.076;13.722;2023-12-28T03:33:40;4.32;;;2.88;;
48263;SDS011;34086;51.076;13.722;2023-12-28T03:34:41;4.82;;;3.10;;
48263;SDS011;34086;51.076;13.722;2023-12-28T03:35:42;6.15;;;3.38;;
48263;SDS011;34086;51.076;13.722;2023-12-28T03:36:42;5.22;;;3.13;;
48263;SDS011;34086;51.076;13.722;2023-12-28T03:37:43;5.93;;;3.45;;
48263;SDS011;34086;51.076;13.722;2023-12-28T03:38:43;10.80;;;3.80;;
48263;SDS011;34086;51.076;13.722;2023-12-28T03:39:44;5.40;;;3.40;;
48263;SDS011;34086;51.076;13.722;2023-12-28T03:40:45;4.38;;;2.80;;
48263;SDS011;34086;51.076;13.722;2023-12-28T03:41:47;5.22;;;3.38;;
48263;SDS011;34086;51.076;13.722;2023-12-28T03:42:48;6.95;;;3.38;;
48263;SDS011;34086;51.076;13.722;2023-12-28T03:43:48;5.35;;;3.40;;
48263;SDS011;34086;51.076;13.722;2023-12-28T03:44:49;6.80;;;3.58;;
48263;SDS011;34086;51.076;13.722;2023-12-28T03:45:50;7.25;;;4.55;;
48263;SDS011;34086;51.076;13.722;2023-12-28T03:46:50;7.28;;;4.03;;
48263;SDS011;34086;51.076;13.722;2023-12-28T03:47:51;5.15;;;3.33;;
48263;SDS011;34086;51.076;13.722;2023-12-28T03:48:52;5.43;;;3.22;;
48263;SDS011;34086;51.076;13.722;2023-12-28T03:49:53;6.15;;;3.08;;
48263;SDS011;34086;51.076;13.722;2023-12-28T03:50:56;4.40;;;3.10;;
48263;SDS011;34086;51.076;13.722;2023-12-28T03:51:57;4.10;;;2.90;;
48263;SDS011;34086;51.076;13.722;2023-12-28T03:52:57;5.60;;;2.80;;
48263;SDS011;34086;51.076;13.722;2023-12-28T03:53:58;4.50;;;2.45;;
48263;SDS011;34086;51.076;13.722;2023-12-28T03:54:59;4.25;;;2.85;;
48263;SDS011;34086;51.076;13.722;2023-12-28T03:55:59;4.05;;;2.78;;
48263;SDS011;34086;51.076;13.722;2023-12-28T03:57:00;4.75;;;2.83;;
48263;SDS011;34086;51.076;13.722;2023-12-28T03:58:01;5.70;;;3.10;;
48263;SDS011;34086;51.076;13.722;2023-12-28T03:59:01;5.25;;;3.17;;
48263;SDS011;34086;51.076;13.722;2023-12-28T04:00:02;4.82;;;2.63;;
48263;SDS011;34086;51.076;13.722;2023-12-28T04:01:12;3.88;;;2.40;;
48263;SDS011;34086;51.076;13.722;2023-12-28T04:02:13;3.90;;;2.50;;
48263;SDS011;34086;51.076;13.722;2023-12-28T04:03:14;2.88;;;2.20;;
48263;SDS011;34086;51.076;13.722;2023-12-28T04:04:14;6.50;;;2.75;;
48263;SDS011;34086;51.076;13.722;2023-12-28T04:05:15;6.15;;;3.35;;
48263;SDS011;34086;51.076;13.722;2023-12-28T04:06:15;4.75;;;2.60;;
48263;SDS011;34086;51.076;13.722;2023-12-28T04:07:16;4.68;;;2.80;;
48263;SDS011;34086;51.076;13.722;2023-12-28T04:08:16;5.20;;;2.70;;
48263;SDS011;34086;51.076;13.722;2023-12-28T04:09:17;3.03;;;2.30;;
48263;SDS011;34086;51.076;13.722;2023-12-28T04:10:27;4.22;;;2.72;;
48263;SDS011;34086;51.076;13.722;2023-12-28T04:11:30;4.30;;;2.42;;
48263;SDS011;34086;51.076;13.722;2023-12-28T04:12:31;5.55;;;2.50;;
48263;SDS011;34086;51.076;13.722;2023-12-28T04:13:32;3.40;;;2.70;;
48263;SDS011;34086;51.076;13.722;2023-12-28T04:14:32;4.05;;;2.70;;
48263;SDS011;34086;51.076;13.722;2023-12-28T04:15:33;3.83;;;2.38;;
48263;SDS011;34086;51.076;13.722;2023-12-28T04:16:34;2.92;;;2.15;;
48263;SDS011;34086;51.076;13.722;2023-12-28T04:17:34;3.17;;;2.10;;
48263;SDS011;34086;51.076;13.722;2023-12-28T04:18:35;5.15;;;2.60;;
48263;SDS011;34086;51.076;13.722;2023-12-28T04:19:35;2.42;;;2.00;;
48263;SDS011;34086;51.076;13.722;2023-12-28T04:20:36;4.13;;;2.50;;
48263;SDS011;34086;51.076;13.722;2023-12-28T04:21:37;5.32;;;2.10;;
48263;SDS011;34086;51.076;13.722;2023-12-28T04:22:38;4.88;;;2.50;;
48263;SDS011;34086;51.076;13.722;2023-12-28T04:23:39;3.03;;;2.05;;
48263;SDS011;34086;51.076;13.722;2023-12-28T04:24:41;3.47;;;2.20;;
48263;SDS011;34086;51.076;13.722;2023-12-28T04:25:41;4.25;;;2.10;;
48263;SDS011;34086;51.076;13.722;2023-12-28T04:26:42;4.60;;;2.20;;
48263;SDS011;34086;51.076;13.722;2023-12-28T04:27:43;4.60;;;2.45;;
48263;SDS011;34086;51.076;13.722;2023-12-28T04:28:43;3.70;;;2.75;;
48263;SDS011;34086;51.076;13.722;2023-12-28T04:29:44;5.57;;;3.40;;
48263;SDS011;34086;51.076;13.722;2023-12-28T04:30:45;5.63;;;3.78;;
48263;SDS011;34086;51.076;13.722;2023-12-28T04:31:46;3.35;;;2.40;;
48263;SDS011;34086;51.076;13.722;2023-12-28T04:32:47;3.67;;;2.50;;
48263;SDS011;34086;51.076;13.722;2023-12-28T04:33:47;4.07;;;2.60;;
48263;SDS011;34086;51.076;13.722;2023-12-28T04:34:48;3.28;;;2.53;;
48263;SDS011;34086;51.076;13.722;2023-12-28T04:35:48;3.40;;;2.80;;
48263;SDS011;34086;51.076;13.722;2023-12-28T04:36:49;4.30;;;2.80;;
48263;SDS011;34086;51.076;13.722;2023-12-28T04:37:50;4.05;;;2.80;;
48263;SDS011;34086;51.076;13.722;2023-12-28T04:38:51;5.28;;;3.25;;
48263;SDS011;34086;51.076;13.722;2023-12-28T04:39:52;4.85;;;3.25;;
48263;SDS011;34086;51.076;13.722;2023-12-28T04:40:55;5.10;;;3.30;;
48263;SDS011;34086;51.076;13.722;2023-12-28T04:41:56;4.97;;;3.38;;
48263;SDS011;34086;51.076;13.722;2023-12-28T04:42:57;6.53;;;3.60;;
48263;SDS011;34086;51.076;13.722;2023-12-28T04:43:57;5.18;;;3.47;;
48263;SDS011;34086;51.076;13.722;2023-12-28T04:44:58;5.75;;;3.80;;
48263;SDS011;34086;51.076;13.722;2023-12-28T04:46:02;6.15;;;3.90;;
48263;SDS011;34086;51.076;13.722;2023-12-28T04:47:05;6.78;;;4.03;;
48263;SDS011;34086;51.076;13.722;2023-12-28T04:48:06;7.07;;;3.70;;
48263;SDS011;34086;51.076;13.722;2023-12-28T04:49:06;6.25;;;3.88;;
48263;SDS011;34086;51.076;13.722;2023-12-28T04:50:07;5.97;;;3.75;;
48263;SDS011;34086;51.076;13.722;2023-12-28T04:51:07;5.50;;;3.75;;
48263;SDS011;34086;51.076;13.722;2023-12-28T04:52:08;5.97;;;3.80;;
48263;SDS011;34086;51.076;13.722;2023-12-28T04:53:08;6.50;;;3.60;;
48263;SDS011;34086;51.076;13.722;2023-12-28T04:54:09;6.13;;;4.20;;
48263;SDS011;34086;51.076;13.722;2023-12-28T04:55:10;8.02;;;4.20;;
48263;SDS011;34086;51.076;13.722;2023-12-28T04:56:10;6.35;;;4.18;;
48263;SDS011;34086;51.076;13.722;2023-12-28T04:57:11;6.35;;;3.72;;
48263;SDS011;34086;51.076;13.722;2023-12-28T04:58:11;6.80;;;3.80;;
48263;SDS011;34086;51.076;13.722;2023-12-28T04:59:12;5.75;;;3.70;;
48263;SDS011;34086;51.076;13.722;2023-12-28T05:00:14;7.97;;;4.85;;
48263;SDS011;34086;51.076;13.722;2023-12-28T05:01:14;11.20;;;6.43;;
48263;SDS011;34086;51.076;13.722;2023-12-28T05:02:15;6.32;;;4.07;;
48263;SDS011;34086;51.076;13.722;2023-12-28T05:03:16;7.90;;;4.72;;
48263;SDS011;34086;51.076;13.722;2023-12-28T05:04:17;10.55;;;5.63;;
48263;SDS011;34086;51.076;13.722;2023-12-28T05:05:17;7.22;;;4.05;;
48263;SDS011;34086;51.076;13.722;2023-12-28T05:06:18;7.82;;;4.55;;
48263;SDS011;34086;51.076;13.722;2023-12-28T05:07:19;6.47;;;3.63;;
48263;SDS011;34086;51.076;13.722;2023-12-28T05:08:20;5.45;;;3.75;;
48263;SDS011;34086;51.076;13.722;2023-12-28T05:09:21;6.18;;;3.78;;
48263;SDS011;34086;51.076;13.722;2023-12-28T05:10:22;5.88;;;3.83;;
48263;SDS011;34086;51.076;13.722;2023-12-28T05:11:23;7.80;;;4.10;;
48263;SDS011;34086;51.076;13.722;2023-12-28T05:12:23;6.25;;;3.63;;
48263;SDS011;34086;51.076;13.722;2023-12-28T05:13:24;7.10;;;3.80;;
48263;SDS011;34086;51.076;13.722;2023-12-28T05:14:24;8.35;;;4.05;;
48263;SDS011;34086;51.076;13.722;2023-12-28T05:15:25;9.23;;;4.63;;
48263;SDS011;34086;51.076;13.722;2023-12-28T05:16:26;7.90;;;4.55;;
48263;SDS011;34086;51.076;13.722;2023-12-28T05:17:26;7.68;;;4.60;;
48263;SDS011;34086;51.076;13.722;2023-12-28T05:18:27;9.73;;;4.68;;
48263;SDS011;34086;51.076;13.722;2023-12-28T05:19:27;7.30;;;4.47;;
48263;SDS011;34086;51.076;13.722;2023-12-28T05:20:28;7.20;;;4.30;;
48263;SDS011;34086;51.076;13.722;2023-12-28T05:21:28;9.02;;;4.50;;
48263;SDS011;34086;51.076;13.722;2023-12-28T05:22:29;6.47;;;4.30;;
48263;SDS011;34086;51.076;13.722;2023-12-28T05:23:29;7.30;;;4.07;;
48263;SDS011;34086;51.076;13.722;2023-12-28T05:24:30;7.90;;;3.90;;
48263;SDS011;34086;51.076;13.722;2023-12-28T05:25:30;6.00;;;4.10;;
48263;SDS011;34086;51.076;13.722;2023-12-28T05:26:31;7.63;;;3.72;;
48263;SDS011;34086;51.076;13.722;2023-12-28T05:27:31;5.43;;;3.50;;
48263;SDS011;34086;51.076;13.722;2023-12-28T05:28:32;4.60;;;3.20;;
48263;SDS011;34086;51.076;13.722;2023-12-28T05:29:33;5.95;;;3.80;;
48263;SDS011;34086;51.076;13.722;2023-12-28T05:30:33;4.85;;;3.42;;
48263;SDS011;34086;51.076;13.722;2023-12-28T05:31:34;6.03;;;3.60;;
48263;SDS011;34086;51.076;13.722;2023-12-28T05:32:34;5.70;;;3.75;;
48263;SDS011;34086;51.076;13.722;2023-12-28T05:33:35;5.70;;;3.33;;
48263;SDS011;34086;51.076;13.722;2023-12-28T05:34:35;4.75;;;3.50;;
48263;SDS011;34086;51.076;13.722;2023-12-28T05:35:36;5.63;;;3.85;;
48263;SDS011;34086;51.076;13.722;2023-12-28T05:36:37;7.55;;;3.75;;
48263;SDS011;34086;51.076;13.722;2023-12-28T05:37:37;6.10;;;3.72;;
48263;SDS011;34086;51.076;13.722;2023-12-28T05:38:38;6.57;;;3.90;;
48263;SDS011;34086;51.076;13.722;2023-12-28T05:39:38;5.47;;;3.70;;
48263;SDS011;34086;51.076;13.722;2023-12-28T05:40:39;6.93;;;4.45;;
48263;SDS011;34086;51.076;13.722;2023-12-28T05:41:39;5.60;;;3.95;;
48263;SDS011;34086;51.076;13.722;2023-12-28T05:42:40;5.75;;;3.88;;
48263;SDS011;34086;51.076;13.722;2023-12-28T05:43:41;5.43;;;3.60;;
48263;SDS011;34086;51.076;13.722;2023-12-28T05:44:42;6.25;;;3.90;;
48263;SDS011;34086;51.076;13.722;2023-12-28T05:45:42;6.10;;;3.80;;
48263;SDS011;34086;51.076;13.722;2023-12-28T05:46:43;5.20;;;3.70;;
48263;SDS011;34086;51.076;13.722;2023-12-28T05:47:43;6.22;;;3.85;;
48263;SDS011;34086;51.076;13.722;2023-12-28T05:48:44;4.90;;;3.60;;
48263;SDS011;34086;51.076;13.722;2023-12-28T05:49:45;7.00;;;3.80;;
48263;SDS011;34086;51.076;13.722;2023-12-28T05:50:45;6.38;;;4.80;;
48263;SDS011;34086;51.076;13.722;2023-12-28T05:51:46;5.50;;;4.13;;
48263;SDS011;34086;51.076;13.722;2023-12-28T05:52:46;6.22;;;4.32;;
48263;SDS011;34086;51.076;13.722;2023-12-28T05:53:47;6.57;;;3.90;;
48263;SDS011;34086;51.076;13.722;2023-12-28T05:54:48;5.47;;;3.90;;
48263;SDS011;34086;51.076;13.722;2023-12-28T05:55:48;6.97;;;4.18;;
48263;SDS011;34086;51.076;13.722;2023-12-28T05:56:49;5.72;;;3.67;;
48263;SDS011;34086;51.076;13.722;2023-12-28T05:57:49;6.50;;;3.92;;
48263;SDS011;34086;51.076;13.722;2023-12-28T05:58:50;6.18;;;3.97;;
48263;SDS011;34086;51.076;13.722;2023-12-28T05:59:50;7.05;;;3.88;;
48263;SDS011;34086;51.076;13.722;2023-12-28T06:00:51;6.00;;;4.20;;
48263;SDS011;34086;51.076;13.722;2023-12-28T06:01:52;6.38;;;3.92;;
48263;SDS011;34086;51.076;13.722;2023-12-28T06:02:52;6.00;;;3.85;;
48263;SDS011;34086;51.076;13.722;2023-12-28T06:03:53;6.05;;;3.90;;
48263;SDS011;34086;51.076;13.722;2023-12-28T06:04:54;4.93;;;3.72;;